Terminal Aerodrome Forecast
Issued by NWS

Home | Current Version | Previous Version | Graphics & Text | Print | Product List | Glossary On
Versions: 1 2 3 4 5 6 7 8 9 10 11 12 13 14 15 16 17 18 19 20 21 22
549
FTUS43 KMPX 210520
TAFAXN
TAF
KAXN 210520Z 2106/2206 13009KT 2SM BR OVC003
     FM210900 12008KT 1SM -DZ BR OVC002
     FM211500 11007KT 1 1/2SM -RA BR OVC003
     FM212100 09004KT 3SM -DZ BR OVC004
     FM220200 05003KT 1/2SM FG VV002=

USA.gov is the U.S. government's official web portal to all federal, state and local government web resources and services.